sensor_id;sensor_type;location;lat;lon;timestamp;P1;durP1;ratioP1;P2;durP2;ratioP2
16115;SDS011;8162;47.104;15.432;2023-11-18T00:00:56;0.93;;;0.80;;
16115;SDS011;8162;47.104;15.432;2023-11-18T00:03:58;1.13;;;0.60;;
16115;SDS011;8162;47.104;15.432;2023-11-18T00:06:59;1.37;;;0.73;;
16115;SDS011;8162;47.104;15.432;2023-11-18T00:10:01;1.27;;;0.80;;
16115;SDS011;8162;47.104;15.432;2023-11-18T00:13:02;1.10;;;1.00;;
16115;SDS011;8162;47.104;15.432;2023-11-18T00:16:05;1.20;;;1.10;;
16115;SDS011;8162;47.104;15.432;2023-11-18T00:19:06;1.20;;;1.00;;
16115;SDS011;8162;47.104;15.432;2023-11-18T00:22:09;1.10;;;1.10;;
16115;SDS011;8162;47.104;15.432;2023-11-18T00:25:11;1.73;;;1.40;;
16115;SDS011;8162;47.104;15.432;2023-11-18T00:28:14;2.00;;;1.37;;
16115;SDS011;8162;47.104;15.432;2023-11-18T00:31:15;1.53;;;1.13;;
16115;SDS011;8162;47.104;15.432;2023-11-18T00:34:16;1.20;;;0.90;;
16115;SDS011;8162;47.104;15.432;2023-11-18T00:37:17;0.70;;;0.70;;
16115;SDS011;8162;47.104;15.432;2023-11-18T00:40:18;1.33;;;1.10;;
16115;SDS011;8162;47.104;15.432;2023-11-18T00:43:19;1.67;;;1.57;;
16115;SDS011;8162;47.104;15.432;2023-11-18T00:46:20;2.03;;;1.77;;
16115;SDS011;8162;47.104;15.432;2023-11-18T00:49:22;2.23;;;1.57;;
16115;SDS011;8162;47.104;15.432;2023-11-18T00:52:23;2.10;;;1.40;;
16115;SDS011;8162;47.104;15.432;2023-11-18T00:55:24;1.20;;;1.10;;
16115;SDS011;8162;47.104;15.432;2023-11-18T00:58:25;1.37;;;1.27;;
16115;SDS011;8162;47.104;15.432;2023-11-18T01:01:25;1.47;;;1.20;;
16115;SDS011;8162;47.104;15.432;2023-11-18T01:04:26;2.20;;;1.47;;
16115;SDS011;8162;47.104;15.432;2023-11-18T01:07:27;1.17;;;1.03;;
16115;SDS011;8162;47.104;15.432;2023-11-18T01:10:27;1.80;;;1.23;;
16115;SDS011;8162;47.104;15.432;2023-11-18T01:13:29;2.57;;;1.20;;
16115;SDS011;8162;47.104;15.432;2023-11-18T01:16:31;5.23;;;1.33;;
16115;SDS011;8162;47.104;15.432;2023-11-18T01:19:32;1.57;;;1.20;;
16115;SDS011;8162;47.104;15.432;2023-11-18T01:22:33;1.10;;;1.00;;
16115;SDS011;8162;47.104;15.432;2023-11-18T01:25:34;1.47;;;1.27;;
16115;SDS011;8162;47.104;15.432;2023-11-18T01:28:35;1.20;;;1.10;;
16115;SDS011;8162;47.104;15.432;2023-11-18T01:31:41;1.20;;;1.10;;
16115;SDS011;8162;47.104;15.432;2023-11-18T01:34:42;1.17;;;1.00;;
16115;SDS011;8162;47.104;15.432;2023-11-18T01:37:44;4.33;;;1.13;;
16115;SDS011;8162;47.104;15.432;2023-11-18T01:40:45;0.87;;;0.77;;
16115;SDS011;8162;47.104;15.432;2023-11-18T01:43:46;0.90;;;0.80;;
16115;SDS011;8162;47.104;15.432;2023-11-18T01:46:46;1.33;;;1.23;;
16115;SDS011;8162;47.104;15.432;2023-11-18T01:49:47;3.43;;;1.13;;
16115;SDS011;8162;47.104;15.432;2023-11-18T01:52:49;2.03;;;1.40;;
16115;SDS011;8162;47.104;15.432;2023-11-18T01:55:51;1.40;;;0.90;;
16115;SDS011;8162;47.104;15.432;2023-11-18T01:58:52;1.10;;;1.00;;
16115;SDS011;8162;47.104;15.432;2023-11-18T02:01:53;2.07;;;1.20;;
16115;SDS011;8162;47.104;15.432;2023-11-18T02:04:58;1.07;;;1.00;;
16115;SDS011;8162;47.104;15.432;2023-11-18T02:08:01;0.90;;;0.90;;
16115;SDS011;8162;47.104;15.432;2023-11-18T02:11:18;1.03;;;0.93;;
16115;SDS011;8162;47.104;15.432;2023-11-18T02:14:28;1.30;;;1.20;;
16115;SDS011;8162;47.104;15.432;2023-11-18T02:17:31;1.10;;;1.00;;
16115;SDS011;8162;47.104;15.432;2023-11-18T02:20:34;2.27;;;1.00;;
16115;SDS011;8162;47.104;15.432;2023-11-18T02:23:36;1.10;;;0.90;;
16115;SDS011;8162;47.104;15.432;2023-11-18T02:26:37;2.20;;;1.10;;
16115;SDS011;8162;47.104;15.432;2023-11-18T02:29:39;1.53;;;1.00;;
16115;SDS011;8162;47.104;15.432;2023-11-18T02:35:50;1.03;;;1.03;;
16115;SDS011;8162;47.104;15.432;2023-11-18T02:38:53;2.43;;;1.20;;
16115;SDS011;8162;47.104;15.432;2023-11-18T02:41:55;3.00;;;1.40;;
16115;SDS011;8162;47.104;15.432;2023-11-18T02:44:57;1.57;;;0.93;;
16115;SDS011;8162;47.104;15.432;2023-11-18T02:47:59;1.33;;;1.10;;
16115;SDS011;8162;47.104;15.432;2023-11-18T02:51:00;1.97;;;1.57;;
16115;SDS011;8162;47.104;15.432;2023-11-18T02:54:01;1.30;;;1.20;;
16115;SDS011;8162;47.104;15.432;2023-11-18T02:57:02;1.27;;;1.07;;
16115;SDS011;8162;47.104;15.432;2023-11-18T03:00:06;1.23;;;1.13;;
16115;SDS011;8162;47.104;15.432;2023-11-18T03:03:18;1.40;;;1.30;;
16115;SDS011;8162;47.104;15.432;2023-11-18T03:06:20;1.57;;;1.40;;
16115;SDS011;8162;47.104;15.432;2023-11-18T03:09:21;1.50;;;1.40;;
16115;SDS011;8162;47.104;15.432;2023-11-18T03:12:21;1.67;;;1.37;;
16115;SDS011;8162;47.104;15.432;2023-11-18T03:15:22;1.50;;;1.20;;
16115;SDS011;8162;47.104;15.432;2023-11-18T03:18:23;1.63;;;1.20;;
16115;SDS011;8162;47.104;15.432;2023-11-18T03:21:24;2.03;;;1.50;;
16115;SDS011;8162;47.104;15.432;2023-11-18T03:24:26;2.87;;;1.10;;
16115;SDS011;8162;47.104;15.432;2023-11-18T03:27:29;1.57;;;1.10;;
16115;SDS011;8162;47.104;15.432;2023-11-18T03:30:29;1.33;;;1.23;;
16115;SDS011;8162;47.104;15.432;2023-11-18T03:33:30;1.50;;;1.00;;
16115;SDS011;8162;47.104;15.432;2023-11-18T03:36:31;2.10;;;1.67;;
16115;SDS011;8162;47.104;15.432;2023-11-18T03:39:31;1.70;;;1.27;;
16115;SDS011;8162;47.104;15.432;2023-11-18T03:42:32;1.17;;;1.10;;
16115;SDS011;8162;47.104;15.432;2023-11-18T03:45:33;1.30;;;1.20;;
16115;SDS011;8162;47.104;15.432;2023-11-18T03:48:33;1.53;;;1.30;;
16115;SDS011;8162;47.104;15.432;2023-11-18T03:51:34;1.53;;;1.30;;
16115;SDS011;8162;47.104;15.432;2023-11-18T03:54:35;2.03;;;1.20;;
16115;SDS011;8162;47.104;15.432;2023-11-18T03:57:35;1.20;;;1.10;;
16115;SDS011;8162;47.104;15.432;2023-11-18T04:00:36;1.37;;;1.27;;
16115;SDS011;8162;47.104;15.432;2023-11-18T04:03:37;2.07;;;1.33;;
16115;SDS011;8162;47.104;15.432;2023-11-18T04:06:37;1.00;;;0.90;;
16115;SDS011;8162;47.104;15.432;2023-11-18T04:09:38;1.70;;;1.33;;
16115;SDS011;8162;47.104;15.432;2023-11-18T04:12:41;2.80;;;1.00;;
16115;SDS011;8162;47.104;15.432;2023-11-18T04:15:46;1.40;;;1.10;;
16115;SDS011;8162;47.104;15.432;2023-11-18T04:18:47;1.50;;;1.40;;
16115;SDS011;8162;47.104;15.432;2023-11-18T04:21:47;1.10;;;1.00;;
16115;SDS011;8162;47.104;15.432;2023-11-18T04:24:49;1.80;;;1.20;;
16115;SDS011;8162;47.104;15.432;2023-11-18T04:27:50;1.20;;;1.10;;
16115;SDS011;8162;47.104;15.432;2023-11-18T04:30:51;2.17;;;1.33;;
16115;SDS011;8162;47.104;15.432;2023-11-18T04:33:51;1.47;;;1.37;;
16115;SDS011;8162;47.104;15.432;2023-11-18T04:36:52;1.80;;;1.70;;
16115;SDS011;8162;47.104;15.432;2023-11-18T04:39:53;1.70;;;1.20;;
16115;SDS011;8162;47.104;15.432;2023-11-18T04:42:55;1.57;;;1.43;;
16115;SDS011;8162;47.104;15.432;2023-11-18T04:45:56;2.17;;;1.50;;
16115;SDS011;8162;47.104;15.432;2023-11-18T04:48:57;1.60;;;1.43;;
16115;SDS011;8162;47.104;15.432;2023-11-18T04:51:57;1.80;;;1.50;;
16115;SDS011;8162;47.104;15.432;2023-11-18T04:54:59;3.37;;;1.10;;
16115;SDS011;8162;47.104;15.432;2023-11-18T04:58:00;1.33;;;1.23;;
16115;SDS011;8162;47.104;15.432;2023-11-18T05:01:00;1.50;;;1.40;;
16115;SDS011;8162;47.104;15.432;2023-11-18T05:04:01;2.10;;;1.40;;
16115;SDS011;8162;47.104;15.432;2023-11-18T05:07:02;1.70;;;1.30;;
16115;SDS011;8162;47.104;15.432;2023-11-18T05:10:04;1.90;;;1.40;;
16115;SDS011;8162;47.104;15.432;2023-11-18T05:13:08;1.50;;;1.30;;
16115;SDS011;8162;47.104;15.432;2023-11-18T05:16:08;2.60;;;1.53;;
16115;SDS011;8162;47.104;15.432;2023-11-18T05:19:12;2.73;;;1.80;;
16115;SDS011;8162;47.104;15.432;2023-11-18T05:22:14;1.70;;;1.57;;
16115;SDS011;8162;47.104;15.432;2023-11-18T05:25:15;1.90;;;1.53;;
16115;SDS011;8162;47.104;15.432;2023-11-18T05:28:16;2.13;;;1.67;;
16115;SDS011;8162;47.104;15.432;2023-11-18T05:31:17;3.50;;;1.60;;
16115;SDS011;8162;47.104;15.432;2023-11-18T05:34:17;2.53;;;1.30;;
16115;SDS011;8162;47.104;15.432;2023-11-18T05:37:21;1.40;;;1.30;;
16115;SDS011;8162;47.104;15.432;2023-11-18T05:40:22;1.30;;;1.20;;
16115;SDS011;8162;47.104;15.432;2023-11-18T05:43:27;2.23;;;1.40;;
16115;SDS011;8162;47.104;15.432;2023-11-18T05:46:40;1.67;;;1.40;;
16115;SDS011;8162;47.104;15.432;2023-11-18T05:49:41;2.03;;;1.67;;
16115;SDS011;8162;47.104;15.432;2023-11-18T05:52:41;1.97;;;1.73;;
16115;SDS011;8162;47.104;15.432;2023-11-18T05:55:42;2.27;;;1.67;;
16115;SDS011;8162;47.104;15.432;2023-11-18T05:58:43;3.10;;;1.60;;
16115;SDS011;8162;47.104;15.432;2023-11-18T06:01:44;1.47;;;1.37;;
16115;SDS011;8162;47.104;15.432;2023-11-18T06:04:45;1.97;;;1.77;;
16115;SDS011;8162;47.104;15.432;2023-11-18T06:07:45;3.40;;;1.80;;
16115;SDS011;8162;47.104;15.432;2023-11-18T06:10:47;3.27;;;2.07;;
16115;SDS011;8162;47.104;15.432;2023-11-18T06:13:49;2.03;;;1.73;;
16115;SDS011;8162;47.104;15.432;2023-11-18T06:16:54;3.20;;;1.97;;
16115;SDS011;8162;47.104;15.432;2023-11-18T06:19:55;1.90;;;1.63;;
16115;SDS011;8162;47.104;15.432;2023-11-18T06:22:56;2.63;;;1.93;;
16115;SDS011;8162;47.104;15.432;2023-11-18T06:25:57;3.30;;;2.30;;
16115;SDS011;8162;47.104;15.432;2023-11-18T06:29:00;3.50;;;2.60;;
16115;SDS011;8162;47.104;15.432;2023-11-18T06:32:01;1.90;;;1.63;;
16115;SDS011;8162;47.104;15.432;2023-11-18T06:35:01;3.47;;;1.77;;
16115;SDS011;8162;47.104;15.432;2023-11-18T06:38:05;1.97;;;1.50;;
16115;SDS011;8162;47.104;15.432;2023-11-18T06:41:07;5.40;;;2.00;;
16115;SDS011;8162;47.104;15.432;2023-11-18T06:44:13;2.93;;;2.17;;
16115;SDS011;8162;47.104;15.432;2023-11-18T06:47:18;2.63;;;2.10;;
16115;SDS011;8162;47.104;15.432;2023-11-18T06:50:19;5.97;;;2.33;;
16115;SDS011;8162;47.104;15.432;2023-11-18T06:53:24;2.63;;;2.23;;
16115;SDS011;8162;47.104;15.432;2023-11-18T06:56:27;2.80;;;2.10;;
16115;SDS011;8162;47.104;15.432;2023-11-18T06:59:27;2.50;;;1.97;;
16115;SDS011;8162;47.104;15.432;2023-11-18T07:02:28;2.83;;;2.30;;
16115;SDS011;8162;47.104;15.432;2023-11-18T07:05:29;6.70;;;3.23;;
16115;SDS011;8162;47.104;15.432;2023-11-18T07:08:29;2.70;;;2.50;;
16115;SDS011;8162;47.104;15.432;2023-11-18T07:11:30;5.03;;;2.83;;
16115;SDS011;8162;47.104;15.432;2023-11-18T07:14:32;3.17;;;2.17;;
16115;SDS011;8162;47.104;15.432;2023-11-18T07:17:33;2.43;;;2.10;;
16115;SDS011;8162;47.104;15.432;2023-11-18T07:20:35;5.20;;;2.70;;
16115;SDS011;8162;47.104;15.432;2023-11-18T07:23:35;3.67;;;2.33;;
16115;SDS011;8162;47.104;15.432;2023-11-18T07:26:36;2.03;;;1.80;;
16115;SDS011;8162;47.104;15.432;2023-11-18T07:29:37;3.23;;;2.30;;
16115;SDS011;8162;47.104;15.432;2023-11-18T07:32:38;3.10;;;2.07;;
16115;SDS011;8162;47.104;15.432;2023-11-18T07:35:40;3.07;;;2.50;;
16115;SDS011;8162;47.104;15.432;2023-11-18T07:38:41;4.43;;;2.97;;
16115;SDS011;8162;47.104;15.432;2023-11-18T07:41:41;2.87;;;2.37;;
16115;SDS011;8162;47.104;15.432;2023-11-18T07:44:42;4.93;;;2.70;;
16115;SDS011;8162;47.104;15.432;2023-11-18T07:47:44;3.93;;;2.83;;
16115;SDS011;8162;47.104;15.432;2023-11-18T07:50:44;3.03;;;2.17;;
16115;SDS011;8162;47.104;15.432;2023-11-18T07:53:45;3.57;;;2.37;;
16115;SDS011;8162;47.104;15.432;2023-11-18T07:56:46;3.97;;;2.13;;
16115;SDS011;8162;47.104;15.432;2023-11-18T07:59:48;5.43;;;3.17;;
16115;SDS011;8162;47.104;15.432;2023-11-18T08:02:49;7.70;;;3.10;;
16115;SDS011;8162;47.104;15.432;2023-11-18T08:05:49;3.77;;;2.37;;
16115;SDS011;8162;47.104;15.432;2023-11-18T08:08:51;5.87;;;3.77;;
16115;SDS011;8162;47.104;15.432;2023-11-18T08:11:54;12.00;;;6.37;;
16115;SDS011;8162;47.104;15.432;2023-11-18T08:14:55;8.27;;;5.10;;
16115;SDS011;8162;47.104;15.432;2023-11-18T08:17:57;5.27;;;4.00;;
16115;SDS011;8162;47.104;15.432;2023-11-18T08:20:57;5.13;;;3.23;;
16115;SDS011;8162;47.104;15.432;2023-11-18T08:24:00;5.50;;;2.90;;
16115;SDS011;8162;47.104;15.432;2023-11-18T08:27:01;4.03;;;2.97;;
16115;SDS011;8162;47.104;15.432;2023-11-18T08:30:04;4.70;;;3.70;;
16115;SDS011;8162;47.104;15.432;2023-11-18T08:33:10;4.27;;;2.63;;
16115;SDS011;8162;47.104;15.432;2023-11-18T08:36:11;4.80;;;3.47;;
16115;SDS011;8162;47.104;15.432;2023-11-18T08:39:12;2.90;;;2.27;;
16115;SDS011;8162;47.104;15.432;2023-11-18T08:42:16;4.10;;;2.50;;
16115;SDS011;8162;47.104;15.432;2023-11-18T08:45:20;4.23;;;2.00;;
16115;SDS011;8162;47.104;15.432;2023-11-18T08:48:27;1.93;;;1.73;;
16115;SDS011;8162;47.104;15.432;2023-11-18T08:51:28;3.37;;;2.10;;
16115;SDS011;8162;47.104;15.432;2023-11-18T08:54:29;1.83;;;1.20;;
16115;SDS011;8162;47.104;15.432;2023-11-18T08:57:38;2.57;;;1.53;;
16115;SDS011;8162;47.104;15.432;2023-11-18T09:00:53;2.67;;;2.00;;
16115;SDS011;8162;47.104;15.432;2023-11-18T09:03:55;0.40;;;0.40;;
16115;SDS011;8162;47.104;15.432;2023-11-18T09:06:57;0.30;;;0.30;;
16115;SDS011;8162;47.104;15.432;2023-11-18T09:10:00;0.37;;;0.37;;
16115;SDS011;8162;47.104;15.432;2023-11-18T09:13:02;0.20;;;0.20;;
16115;SDS011;8162;47.104;15.432;2023-11-18T09:16:07;0.30;;;0.30;;
16115;SDS011;8162;47.104;15.432;2023-11-18T09:19:08;0.50;;;0.30;;
16115;SDS011;8162;47.104;15.432;2023-11-18T09:22:10;0.40;;;0.40;;
16115;SDS011;8162;47.104;15.432;2023-11-18T09:25:13;0.30;;;0.30;;
16115;SDS011;8162;47.104;15.432;2023-11-18T09:28:14;0.50;;;0.40;;
16115;SDS011;8162;47.104;15.432;2023-11-18T09:31:15;0.40;;;0.40;;
16115;SDS011;8162;47.104;15.432;2023-11-18T09:34:16;0.60;;;0.60;;
16115;SDS011;8162;47.104;15.432;2023-11-18T09:37:17;0.90;;;0.50;;
16115;SDS011;8162;47.104;15.432;2023-11-18T09:40:20;0.30;;;0.30;;
16115;SDS011;8162;47.104;15.432;2023-11-18T09:43:27;0.30;;;0.30;;
16115;SDS011;8162;47.104;15.432;2023-11-18T09:46:32;0.57;;;0.27;;
16115;SDS011;8162;47.104;15.432;2023-11-18T09:49:44;0.40;;;0.40;;
16115;SDS011;8162;47.104;15.432;2023-11-18T09:52:48;0.30;;;0.30;;
16115;SDS011;8162;47.104;15.432;2023-11-18T09:55:54;1.17;;;0.33;;
16115;SDS011;8162;47.104;15.432;2023-11-18T09:59:23;0.73;;;0.30;;
16115;SDS011;8162;47.104;15.432;2023-11-18T10:02:28;0.37;;;0.37;;
16115;SDS011;8162;47.104;15.432;2023-11-18T10:05:29;0.37;;;0.20;;
16115;SDS011;8162;47.104;15.432;2023-11-18T10:08:31;0.30;;;0.20;;
16115;SDS011;8162;47.104;15.432;2023-11-18T10:11:32;0.30;;;0.30;;
16115;SDS011;8162;47.104;15.432;2023-11-18T10:14:34;1.67;;;0.60;;
16115;SDS011;8162;47.104;15.432;2023-11-18T10:17:36;0.43;;;0.30;;
16115;SDS011;8162;47.104;15.432;2023-11-18T10:20:55;0.50;;;0.50;;
16115;SDS011;8162;47.104;15.432;2023-11-18T10:24:00;0.50;;;0.50;;
16115;SDS011;8162;47.104;15.432;2023-11-18T10:27:05;0.30;;;0.30;;
16115;SDS011;8162;47.104;15.432;2023-11-18T10:30:08;0.33;;;0.33;;
16115;SDS011;8162;47.104;15.432;2023-11-18T10:33:18;0.50;;;0.50;;
16115;SDS011;8162;47.104;15.432;2023-11-18T10:36:21;0.30;;;0.30;;
16115;SDS011;8162;47.104;15.432;2023-11-18T10:39:26;0.30;;;0.30;;
16115;SDS011;8162;47.104;15.432;2023-11-18T10:42:31;2.13;;;0.43;;
16115;SDS011;8162;47.104;15.432;2023-11-18T10:45:32;1.43;;;0.30;;
16115;SDS011;8162;47.104;15.432;2023-11-18T10:48:33;0.40;;;0.40;;
16115;SDS011;8162;47.104;15.432;2023-11-18T10:51:35;0.80;;;0.40;;
16115;SDS011;8162;47.104;15.432;2023-11-18T10:54:49;0.53;;;0.43;;
16115;SDS011;8162;47.104;15.432;2023-11-18T10:57:54;2.87;;;0.50;;
16115;SDS011;8162;47.104;15.432;2023-11-18T11:00:54;0.70;;;0.70;;
16115;SDS011;8162;47.104;15.432;2023-11-18T11:04:00;1.23;;;0.40;;
16115;SDS011;8162;47.104;15.432;2023-11-18T11:07:04;0.40;;;0.40;;
16115;SDS011;8162;47.104;15.432;2023-11-18T11:10:05;0.90;;;0.37;;
16115;SDS011;8162;47.104;15.432;2023-11-18T11:13:07;0.30;;;0.30;;
16115;SDS011;8162;47.104;15.432;2023-11-18T11:16:10;0.43;;;0.40;;
16115;SDS011;8162;47.104;15.432;2023-11-18T11:20:20;0.30;;;0.30;;
16115;SDS011;8162;47.104;15.432;2023-11-18T11:27:00;0.47;;;0.40;;
16115;SDS011;8162;47.104;15.432;2023-11-18T11:33:25;0.77;;;0.50;;
16115;SDS011;8162;47.104;15.432;2023-11-18T11:36:41;0.40;;;0.40;;
16115;SDS011;8162;47.104;15.432;2023-11-18T11:39:46;3.30;;;0.50;;
16115;SDS011;8162;47.104;15.432;2023-11-18T11:42:49;0.57;;;0.57;;
16115;SDS011;8162;47.104;15.432;2023-11-18T11:45:55;2.07;;;0.90;;
16115;SDS011;8162;47.104;15.432;2023-11-18T11:48:55;0.30;;;0.30;;
16115;SDS011;8162;47.104;15.432;2023-11-18T11:51:58;0.60;;;0.60;;
16115;SDS011;8162;47.104;15.432;2023-11-18T11:55:19;0.33;;;0.33;;
16115;SDS011;8162;47.104;15.432;2023-11-18T11:58:36;0.50;;;0.40;;
16115;SDS011;8162;47.104;15.432;2023-11-18T12:01:37;0.30;;;0.30;;
16115;SDS011;8162;47.104;15.432;2023-11-18T12:04:38;0.33;;;0.30;;
16115;SDS011;8162;47.104;15.432;2023-11-18T12:07:42;0.83;;;0.40;;
16115;SDS011;8162;47.104;15.432;2023-11-18T12:10:50;0.50;;;0.50;;
16115;SDS011;8162;47.104;15.432;2023-11-18T12:14:02;0.33;;;0.33;;
16115;SDS011;8162;47.104;15.432;2023-11-18T12:17:12;0.40;;;0.40;;
16115;SDS011;8162;47.104;15.432;2023-11-18T12:20:40;0.37;;;0.37;;
16115;SDS011;8162;47.104;15.432;2023-11-18T12:24:17;0.40;;;0.40;;
16115;SDS011;8162;47.104;15.432;2023-11-18T12:28:04;0.27;;;0.27;;
16115;SDS011;8162;47.104;15.432;2023-11-18T12:30:40;0.40;;;0.40;;
16115;SDS011;8162;47.104;15.432;2023-11-18T12:37:01;0.30;;;0.30;;
16115;SDS011;8162;47.104;15.432;2023-11-18T12:40:50;0.20;;;0.20;;
16115;SDS011;8162;47.104;15.432;2023-11-18T12:44:25;0.30;;;0.30;;
16115;SDS011;8162;47.104;15.432;2023-11-18T12:47:24;0.20;;;0.20;;
16115;SDS011;8162;47.104;15.432;2023-11-18T12:50:28;0.50;;;0.40;;
16115;SDS011;8162;47.104;15.432;2023-11-18T12:53:32;0.40;;;0.40;;
16115;SDS011;8162;47.104;15.432;2023-11-18T12:56:35;0.23;;;0.23;;
16115;SDS011;8162;47.104;15.432;2023-11-18T12:59:38;0.30;;;0.30;;
16115;SDS011;8162;47.104;15.432;2023-11-18T13:02:39;0.53;;;0.47;;
16115;SDS011;8162;47.104;15.432;2023-11-18T13:05:43;1.43;;;0.20;;
16115;SDS011;8162;47.104;15.432;2023-11-18T13:08:45;0.50;;;0.50;;
16115;SDS011;8162;47.104;15.432;2023-11-18T13:11:46;1.30;;;0.80;;
16115;SDS011;8162;47.104;15.432;2023-11-18T13:14:47;0.80;;;0.60;;
16115;SDS011;8162;47.104;15.432;2023-11-18T13:18:01;0.50;;;0.50;;
16115;SDS011;8162;47.104;15.432;2023-11-18T13:21:06;0.90;;;0.90;;
16115;SDS011;8162;47.104;15.432;2023-11-18T13:24:07;0.37;;;0.37;;
16115;SDS011;8162;47.104;15.432;2023-11-18T13:27:08;0.50;;;0.47;;
16115;SDS011;8162;47.104;15.432;2023-11-18T13:30:09;0.30;;;0.30;;
16115;SDS011;8162;47.104;15.432;2023-11-18T13:33:13;1.57;;;0.70;;
16115;SDS011;8162;47.104;15.432;2023-11-18T13:36:14;1.17;;;0.90;;
16115;SDS011;8162;47.104;15.432;2023-11-18T13:39:18;1.43;;;0.60;;
16115;SDS011;8162;47.104;15.432;2023-11-18T13:45:21;0.20;;;0.20;;
16115;SDS011;8162;47.104;15.432;2023-11-18T13:48:22;0.37;;;0.37;;
16115;SDS011;8162;47.104;15.432;2023-11-18T13:51:23;0.77;;;0.40;;
16115;SDS011;8162;47.104;15.432;2023-11-18T13:54:24;0.30;;;0.30;;
16115;SDS011;8162;47.104;15.432;2023-11-18T13:57:28;0.30;;;0.27;;
16115;SDS011;8162;47.104;15.432;2023-11-18T14:00:29;0.53;;;0.47;;
16115;SDS011;8162;47.104;15.432;2023-11-18T14:03:30;0.60;;;0.60;;
16115;SDS011;8162;47.104;15.432;2023-11-18T14:06:31;0.37;;;0.37;;
16115;SDS011;8162;47.104;15.432;2023-11-18T14:09:32;0.47;;;0.40;;
16115;SDS011;8162;47.104;15.432;2023-11-18T14:12:36;1.27;;;0.80;;
16115;SDS011;8162;47.104;15.432;2023-11-18T14:15:38;39.77;;;20.90;;
16115;SDS011;8162;47.104;15.432;2023-11-18T14:18:42;1.63;;;0.73;;
16115;SDS011;8162;47.104;15.432;2023-11-18T14:21:43;0.50;;;0.50;;
16115;SDS011;8162;47.104;15.432;2023-11-18T14:24:43;0.50;;;0.50;;
16115;SDS011;8162;47.104;15.432;2023-11-18T14:27:44;0.53;;;0.50;;
16115;SDS011;8162;47.104;15.432;2023-11-18T14:30:45;0.47;;;0.47;;
16115;SDS011;8162;47.104;15.432;2023-11-18T14:33:45;0.40;;;0.40;;
16115;SDS011;8162;47.104;15.432;2023-11-18T14:36:46;0.50;;;0.50;;
16115;SDS011;8162;47.104;15.432;2023-11-18T14:39:47;0.40;;;0.40;;
16115;SDS011;8162;47.104;15.432;2023-11-18T14:42:48;0.57;;;0.40;;
16115;SDS011;8162;47.104;15.432;2023-11-18T14:45:48;0.63;;;0.63;;
16115;SDS011;8162;47.104;15.432;2023-11-18T14:48:49;0.70;;;0.50;;
16115;SDS011;8162;47.104;15.432;2023-11-18T14:51:51;0.40;;;0.40;;
16115;SDS011;8162;47.104;15.432;2023-11-18T14:54:52;0.77;;;0.50;;
16115;SDS011;8162;47.104;15.432;2023-11-18T14:57:52;0.60;;;0.60;;
16115;SDS011;8162;47.104;15.432;2023-11-18T15:00:53;1.03;;;0.90;;
16115;SDS011;8162;47.104;15.432;2023-11-18T15:03:56;1.10;;;0.70;;
16115;SDS011;8162;47.104;15.432;2023-11-18T15:06:57;0.77;;;0.77;;
16115;SDS011;8162;47.104;15.432;2023-11-18T15:09:58;0.80;;;0.70;;
16115;SDS011;8162;47.104;15.432;2023-11-18T15:12:58;0.80;;;0.80;;
16115;SDS011;8162;47.104;15.432;2023-11-18T15:16:00;0.50;;;0.50;;
16115;SDS011;8162;47.104;15.432;2023-11-18T15:19:04;0.73;;;0.73;;
16115;SDS011;8162;47.104;15.432;2023-11-18T15:22:04;0.70;;;0.70;;
16115;SDS011;8162;47.104;15.432;2023-11-18T15:25:05;1.33;;;0.70;;
16115;SDS011;8162;47.104;15.432;2023-11-18T15:28:10;0.63;;;0.63;;
16115;SDS011;8162;47.104;15.432;2023-11-18T15:31:11;0.80;;;0.80;;
16115;SDS011;8162;47.104;15.432;2023-11-18T15:34:12;0.77;;;0.70;;
16115;SDS011;8162;47.104;15.432;2023-11-18T15:37:13;0.67;;;0.67;;
16115;SDS011;8162;47.104;15.432;2023-11-18T15:40:14;0.70;;;0.70;;
16115;SDS011;8162;47.104;15.432;2023-11-18T15:43:19;1.53;;;0.70;;
16115;SDS011;8162;47.104;15.432;2023-11-18T15:46:20;0.80;;;0.70;;
16115;SDS011;8162;47.104;15.432;2023-11-18T15:49:20;2.13;;;1.80;;
16115;SDS011;8162;47.104;15.432;2023-11-18T15:52:21;3.23;;;2.60;;
16115;SDS011;8162;47.104;15.432;2023-11-18T15:55:22;2.90;;;2.33;;
16115;SDS011;8162;47.104;15.432;2023-11-18T15:58:24;1.53;;;1.43;;
16115;SDS011;8162;47.104;15.432;2023-11-18T16:01:26;1.50;;;1.30;;
16115;SDS011;8162;47.104;15.432;2023-11-18T16:04:27;3.10;;;1.57;;
16115;SDS011;8162;47.104;15.432;2023-11-18T16:07:28;2.10;;;1.40;;
16115;SDS011;8162;47.104;15.432;2023-11-18T16:10:29;2.00;;;1.50;;
16115;SDS011;8162;47.104;15.432;2023-11-18T16:13:30;2.33;;;1.67;;
16115;SDS011;8162;47.104;15.432;2023-11-18T16:16:31;2.30;;;1.83;;
16115;SDS011;8162;47.104;15.432;2023-11-18T16:19:31;2.07;;;1.70;;
16115;SDS011;8162;47.104;15.432;2023-11-18T16:22:33;2.77;;;1.93;;
16115;SDS011;8162;47.104;15.432;2023-11-18T16:25:34;3.03;;;1.50;;
16115;SDS011;8162;47.104;15.432;2023-11-18T16:28:36;2.47;;;1.53;;
16115;SDS011;8162;47.104;15.432;2023-11-18T16:31:36;2.23;;;1.70;;
16115;SDS011;8162;47.104;15.432;2023-11-18T16:34:38;1.93;;;1.73;;
16115;SDS011;8162;47.104;15.432;2023-11-18T16:37:39;1.87;;;1.50;;
16115;SDS011;8162;47.104;15.432;2023-11-18T16:40:40;1.77;;;1.50;;
16115;SDS011;8162;47.104;15.432;2023-11-18T16:43:41;3.03;;;2.00;;
16115;SDS011;8162;47.104;15.432;2023-11-18T16:46:42;5.47;;;3.93;;
16115;SDS011;8162;47.104;15.432;2023-11-18T16:49:43;8.23;;;5.10;;
16115;SDS011;8162;47.104;15.432;2023-11-18T16:52:44;8.17;;;4.63;;
16115;SDS011;8162;47.104;15.432;2023-11-18T16:55:45;5.43;;;4.23;;
16115;SDS011;8162;47.104;15.432;2023-11-18T16:58:45;4.73;;;3.40;;
16115;SDS011;8162;47.104;15.432;2023-11-18T17:01:46;4.23;;;2.97;;
16115;SDS011;8162;47.104;15.432;2023-11-18T17:04:47;3.70;;;2.40;;
16115;SDS011;8162;47.104;15.432;2023-11-18T17:07:49;2.47;;;1.83;;
16115;SDS011;8162;47.104;15.432;2023-11-18T17:10:50;2.67;;;2.20;;
16115;SDS011;8162;47.104;15.432;2023-11-18T17:13:53;5.27;;;3.67;;
16115;SDS011;8162;47.104;15.432;2023-11-18T17:16:54;11.57;;;10.23;;
16115;SDS011;8162;47.104;15.432;2023-11-18T17:19:54;19.67;;;17.77;;
16115;SDS011;8162;47.104;15.432;2023-11-18T17:22:55;19.00;;;17.10;;
16115;SDS011;8162;47.104;15.432;2023-11-18T17:25:56;27.90;;;25.10;;
16115;SDS011;8162;47.104;15.432;2023-11-18T17:28:56;29.20;;;26.20;;
16115;SDS011;8162;47.104;15.432;2023-11-18T17:31:59;18.90;;;16.97;;
16115;SDS011;8162;47.104;15.432;2023-11-18T17:35:00;10.20;;;9.17;;
16115;SDS011;8162;47.104;15.432;2023-11-18T17:38:00;9.10;;;5.13;;
16115;SDS011;8162;47.104;15.432;2023-11-18T17:41:01;5.53;;;4.77;;
16115;SDS011;8162;47.104;15.432;2023-11-18T17:44:02;9.87;;;6.90;;
16115;SDS011;8162;47.104;15.432;2023-11-18T17:47:02;4.07;;;3.43;;
16115;SDS011;8162;47.104;15.432;2023-11-18T17:50:04;5.83;;;3.33;;
16115;SDS011;8162;47.104;15.432;2023-11-18T17:53:08;4.50;;;2.77;;
16115;SDS011;8162;47.104;15.432;2023-11-18T17:56:11;5.43;;;3.70;;
16115;SDS011;8162;47.104;15.432;2023-11-18T17:59:13;5.30;;;4.23;;
16115;SDS011;8162;47.104;15.432;2023-11-18T18:02:14;3.73;;;3.33;;
16115;SDS011;8162;47.104;15.432;2023-11-18T18:05:15;6.17;;;4.40;;
16115;SDS011;8162;47.104;15.432;2023-11-18T18:08:19;9.40;;;4.70;;
16115;SDS011;8162;47.104;15.432;2023-11-18T18:11:21;5.77;;;4.50;;
16115;SDS011;8162;47.104;15.432;2023-11-18T18:14:22;7.57;;;4.13;;
16115;SDS011;8162;47.104;15.432;2023-11-18T18:17:26;5.30;;;3.97;;
16115;SDS011;8162;47.104;15.432;2023-11-18T18:20:27;3.50;;;2.97;;
16115;SDS011;8162;47.104;15.432;2023-11-18T18:23:28;3.67;;;2.83;;
16115;SDS011;8162;47.104;15.432;2023-11-18T18:26:31;5.53;;;3.90;;
16115;SDS011;8162;47.104;15.432;2023-11-18T18:29:32;5.87;;;3.70;;
16115;SDS011;8162;47.104;15.432;2023-11-18T18:32:33;3.13;;;2.80;;
16115;SDS011;8162;47.104;15.432;2023-11-18T18:35:34;7.63;;;2.80;;
16115;SDS011;8162;47.104;15.432;2023-11-18T18:38:38;2.70;;;2.13;;